Time;durP1;ratioP1;P1;durP2;ratioP2;P2;SDS_P1;SDS_P2;PMS_P1;PMS_P2;Temp;Humidity;BMP_temperature;BMP_pressure;BME280_temperature;BME280_humidity;BME280_pressure;Samples;Min_cycle;Max_cycle;Signal;HPM_P1;HPM_P2
2021/05/30 00:00:18;;;;;;;;;;;;;;;9.75;67.89;97111.69;1832263;78;20160;-78
2021/05/30 00:02:47;;;;;;;;;;;;;;;9.71;65.21;97118.16;1832188;78;20137;-79
2021/05/30 00:05:13;;;;;;;;;;;;;;;9.68;68.64;97110.48;1832599;78;20101;-79
2021/05/30 00:07:39;;;;;;;;;;;;;;;9.68;67.42;97113.13;1826406;78;20534;-79
2021/05/30 00:10:08;;;;;;;;;;;;;;;9.71;67.46;97110.27;1789395;80;20201;-82
2021/05/30 00:12:35;;;;;;;;;;;;;;;9.73;66.97;97111.45;1792223;80;20162;-80
2021/05/30 00:15:04;;;;;;;;;;;;;;;9.74;67.44;97115.30;1768258;81;20184;-78
2021/05/30 00:17:30;;;;;;;;;;;;;;;9.78;66.41;97115.91;1770847;80;20094;-82
2021/05/30 00:19:56;;;;;;;;;;;;;;;9.80;68.29;97109.56;1777468;80;20187;-78
2021/05/30 00:22:22;;;;;;;;;;;;;;;9.84;67.54;97112.30;1799758;80;20175;-79
2021/05/30 00:24:49;;;;;;;;;;;;;;;9.88;68.27;97110.30;1799645;79;20174;-79
2021/05/30 00:27:15;;;;;;;;;;;;;;;9.90;67.07;97105.72;1791011;80;20162;-81
2021/05/30 00:29:42;;;;;;;;;;;;;;;9.90;67.57;97101.77;1799630;80;20147;-79
2021/05/30 00:32:08;;;;;;;;;;;;;;;9.93;69.50;97104.67;1799720;80;20143;-78
2021/05/30 00:34:34;;;;;;;;;;;;;;;9.91;69.53;97107.41;1799667;80;20163;-79
2021/05/30 00:37:00;;;;;;;;;;;;;;;9.88;69.15;97104.17;1778658;80;20160;-79
2021/05/30 00:39:26;;;;;;;;;;;;;;;9.88;70.22;97102.39;1744796;81;20181;-79
2021/05/30 00:41:52;;;;;;;;;;;;;;;9.90;68.92;97106.22;1750573;82;20168;-79
2021/05/30 00:44:27;;;;;;;;;;;;;;;9.88;68.90;97112.07;1750568;82;20177;-79
2021/05/30 00:46:59;;;;;;;;;;;;;;;9.85;68.87;97107.89;1733121;82;20231;-79
2021/05/30 00:49:27;;;;;;;;;;;;;;;9.80;70.29;97113.51;1755707;82;20110;-79
2021/05/30 00:52:02;;;;;;;;;;;;;;;9.80;70.00;97113.97;1755605;82;20142;-79
2021/05/30 00:54:30;;;;;;;;;;;;;;;9.81;69.81;97111.70;1706994;84;20122;-78
2021/05/30 00:56:56;;;;;;;;;;;;;;;9.81;69.48;97115.19;1721417;83;20179;-81
2021/05/30 00:59:22;;;;;;;;;;;;;;;9.82;69.46;97106.34;1741883;82;20108;-80
2021/05/30 01:01:50;;;;;;;;;;;;;;;9.84;69.32;97104.89;1725917;83;20145;-83
2021/05/30 01:04:17;;;;;;;;;;;;;;;9.83;68.81;97105.38;1724351;83;20224;-79
2021/05/30 01:06:43;;;;;;;;;;;;;;;9.83;68.33;97105.84;1721500;83;20163;-78
2021/05/30 01:09:09;;;;;;;;;;;;;;;9.82;68.57;97108.97;1695564;84;20167;-79
2021/05/30 01:11:36;;;;;;;;;;;;;;;9.79;69.25;97103.94;1713135;84;20145;-79
2021/05/30 01:14:04;;;;;;;;;;;;;;;9.79;68.32;97101.30;1755179;81;20143;-80
2021/05/30 01:16:30;;;;;;;;;;;;;;;9.80;68.99;97102.98;1755533;82;20200;-78
2021/05/30 01:18:58;;;;;;;;;;;;;;;9.79;69.46;97105.25;1755504;82;20215;-79
2021/05/30 01:21:27;;;;;;;;;;;;;;;9.81;70.34;97103.34;1749221;82;20235;-78
2021/05/30 01:23:55;;;;;;;;;;;;;;;9.80;69.40;97097.71;1748901;82;20153;-78
2021/05/30 01:26:22;;;;;;;;;;;;;;;9.84;69.43;97098.31;1749282;81;20185;-77
2021/05/30 01:28:48;;;;;;;;;;;;;;;9.87;68.51;97104.66;1749098;82;20161;-78
2021/05/30 01:31:15;;;;;;;;;;;;;;;9.90;69.62;97100.45;1753001;81;20168;-79
2021/05/30 01:33:41;;;;;;;;;;;;;;;9.93;70.72;97101.55;1751933;82;20189;-78
2021/05/30 01:36:07;;;;;;;;;;;;;;;9.95;69.17;97108.86;1749338;81;20169;-79
2021/05/30 01:38:34;;;;;;;;;;;;;;;9.99;71.26;97111.59;1755590;81;20164;-79
2021/05/30 01:41:00;;;;;;;;;;;;;;;10.05;69.40;97115.55;1755893;82;20222;-79
2021/05/30 01:43:26;;;;;;;;;;;;;;;10.11;68.80;97108.97;1752396;82;20303;-79
2021/05/30 01:45:53;;;;;;;;;;;;;;;10.14;68.84;97098.20;1753231;81;20207;-78
2021/05/30 01:48:19;;;;;;;;;;;;;;;10.19;69.17;97101.30;1755751;82;20147;-79
2021/05/30 01:50:48;;;;;;;;;;;;;;;10.23;67.95;97093.53;1755846;82;20163;-79
2021/05/30 01:53:17;;;;;;;;;;;;;;;10.24;68.76;97084.67;1769161;79;20141;-79
2021/05/30 01:58:20;;;;;;;;;;;;;;;10.28;69.18;97099.25;1789826;80;20161;-78
2021/05/30 02:00:49;;;;;;;;;;;;;;;10.29;67.95;97101.43;1790139;80;20090;-79
2021/05/30 02:03:16;;;;;;;;;;;;;;;10.28;68.72;97101.06;1790290;80;20129;-78
2021/05/30 02:05:48;;;;;;;;;;;;;;;10.26;68.69;97100.34;1790119;80;20130;-78
2021/05/30 02:08:14;;;;;;;;;;;;;;;10.26;67.33;97109.07;1789993;80;20157;-79
2021/05/30 02:10:41;;;;;;;;;;;;;;;10.28;69.08;97107.16;1790005;80;20186;-78
2021/05/30 02:13:08;;;;;;;;;;;;;;;10.27;70.22;97108.61;1795491;80;20149;-79
2021/05/30 02:15:35;;;;;;;;;;;;;;;10.25;68.98;97110.05;1796909;80;20102;-78
2021/05/30 02:18:01;;;;;;;;;;;;;;;10.25;69.40;97111.84;1796911;80;20490;-80
2021/05/30 02:20:36;;;;;;;;;;;;;;;10.24;67.13;97095.67;1790965;79;20478;-80
2021/05/30 02:23:03;;;;;;;;;;;;;;;10.24;68.32;97107.52;1790169;80;20205;-79
2021/05/30 02:25:30;;;;;;;;;;;;;;;10.23;67.03;97104.52;1791175;80;20219;-79
2021/05/30 02:27:56;;;;;;;;;;;;;;;10.22;68.74;97113.38;1792078;80;20197;-80
2021/05/30 02:30:25;;;;;;;;;;;;;;;10.23;68.65;97119.87;1775087;80;20157;-78
2021/05/30 02:32:51;;;;;;;;;;;;;;;10.25;67.92;97111.84;1790210;80;20840;-79
2021/05/30 02:35:17;;;;;;;;;;;;;;;10.27;68.76;97109.43;1789797;80;20505;-78
2021/05/30 02:37:43;;;;;;;;;;;;;;;10.30;68.40;97112.33;1794146;80;20181;-79
2021/05/30 02:40:11;;;;;;;;;;;;;;;10.33;69.19;97113.88;1796907;79;20106;-79
2021/05/30 02:42:37;;;;;;;;;;;;;;;10.37;68.91;97120.56;1796838;80;20201;-79
2021/05/30 02:45:06;;;;;;;;;;;;;;;10.39;68.68;97118.22;1796685;79;20209;-79
2021/05/30 02:47:32;;;;;;;;;;;;;;;10.40;68.45;97114.59;1796932;80;20213;-80
2021/05/30 02:49:59;;;;;;;;;;;;;;;10.39;68.25;97114.27;1797083;80;20156;-79
2021/05/30 02:52:26;;;;;;;;;;;;;;;10.42;68.13;97117.13;1791651;79;20149;-79
2021/05/30 02:54:52;;;;;;;;;;;;;;;10.44;68.68;97112.58;1797182;79;20137;-79
2021/05/30 02:57:18;;;;;;;;;;;;;;;10.47;68.47;97111.00;1793691;80;20166;-79
2021/05/30 02:59:44;;;;;;;;;;;;;;;10.50;68.36;97123.09;1790449;80;20475;-79
2021/05/30 03:02:10;;;;;;;;;;;;;;;10.51;68.28;97119.50;1790462;80;20145;-79
2021/05/30 03:04:36;;;;;;;;;;;;;;;10.50;68.31;97121.31;1793194;79;20153;-78
2021/05/30 03:07:03;;;;;;;;;;;;;;;10.51;68.72;97115.55;1797417;79;20193;-79
2021/05/30 03:09:30;;;;;;;;;;;;;;;10.52;67.36;97122.49;1797207;79;20176;-78
2021/05/30 03:11:56;;;;;;;;;;;;;;;10.52;68.40;97119.39;1797264;79;20106;-78
2021/05/30 03:14:22;;;;;;;;;;;;;;;10.53;68.52;97120.22;1797555;80;20129;-80
2021/05/30 03:16:48;;;;;;;;;;;;;;;10.53;67.88;97122.85;1797528;79;20164;-79
2021/05/30 03:19:14;;;;;;;;;;;;;;;10.53;68.23;97118.44;1797766;79;20189;-79
2021/05/30 03:21:41;;;;;;;;;;;;;;;10.53;69.07;97119.76;1797754;79;20485;-79
2021/05/30 03:24:09;;;;;;;;;;;;;;;10.56;67.90;97126.58;1797641;80;20145;-79
2021/05/30 03:26:36;;;;;;;;;;;;;;;10.56;67.99;97124.77;1792155;79;20169;-80
2021/05/30 03:29:03;;;;;;;;;;;;;;;10.58;67.89;97133.39;1790630;80;20162;-79
2021/05/30 03:31:30;;;;;;;;;;;;;;;10.59;66.65;97124.98;1790693;80;20138;-79
2021/05/30 03:33:56;;;;;;;;;;;;;;;10.59;68.45;97131.12;1790787;80;20142;-79
2021/05/30 03:36:30;;;;;;;;;;;;;;;10.63;68.73;97135.16;1796173;80;20149;-79
2021/05/30 03:39:05;;;;;;;;;;;;;;;10.72;68.57;97133.61;1797735;79;20147;-79
2021/05/30 03:41:40;;;;;;;;;;;;;;;10.77;68.95;97135.37;1797827;79;20132;-79
2021/05/30 03:44:25;;;;;;;;;;;;;;;10.85;67.77;97128.17;1794010;79;20129;-79
2021/05/30 03:46:51;;;;;;;;;;;;;;;11.01;67.87;97132.20;1725642;83;20125;-79
2021/05/30 03:49:18;;;;;;;;;;;;;;;11.22;68.03;97139.67;1690030;85;20256;-79
2021/05/30 03:51:44;;;;;;;;;;;;;;;11.44;67.81;97137.91;1683585;85;20105;-79
2021/05/30 03:54:10;;;;;;;;;;;;;;;11.66;67.34;97142.23;1671752;84;20173;-79
2021/05/30 03:56:36;;;;;;;;;;;;;;;11.88;66.96;97139.07;1668430;86;20156;-79
2021/05/30 03:59:02;;;;;;;;;;;;;;;12.10;66.74;97138.14;1667964;86;20191;-79
2021/05/30 04:01:29;;;;;;;;;;;;;;;12.34;66.25;97140.94;1645499;86;20536;-79
2021/05/30 04:03:55;;;;;;;;;;;;;;;12.64;65.42;97144.52;1669895;86;20165;-80
2021/05/30 04:06:22;;;;;;;;;;;;;;;12.91;63.93;97141.72;1681921;85;20177;-80
2021/05/30 04:08:48;;;;;;;;;;;;;;;13.06;64.50;97135.05;1696580;84;20195;-82
2021/05/30 04:11:15;;;;;;;;;;;;;;;13.16;63.18;97138.18;1698854;85;20166;-83
2021/05/30 04:13:41;;;;;;;;;;;;;;;13.21;62.00;97140.77;1675127;85;20194;-81
2021/05/30 04:16:09;;;;;;;;;;;;;;;13.25;62.06;97142.64;1704425;84;20168;-79
2021/05/30 04:18:37;;;;;;;;;;;;;;;13.31;62.13;97142.11;1742309;82;20170;-80
2021/05/30 04:21:05;;;;;;;;;;;;;;;13.24;61.89;97144.94;1742235;82;20511;-78
2021/05/30 04:23:31;;;;;;;;;;;;;;;13.21;62.00;97142.59;1742587;82;20166;-86
2021/05/30 04:25:58;;;;;;;;;;;;;;;13.22;62.06;97137.65;1744287;82;20170;-85
2021/05/30 04:28:25;;;;;;;;;;;;;;;13.31;61.98;97143.91;1722024;82;20491;-86
2021/05/30 04:30:51;;;;;;;;;;;;;;;13.41;61.35;97148.74;1744360;82;20182;-86
2021/05/30 04:33:17;;;;;;;;;;;;;;;13.46;61.33;97156.27;1743328;82;20499;-79
2021/05/30 04:35:43;;;;;;;;;;;;;;;13.53;61.59;97152.08;1742599;82;20162;-84
2021/05/30 04:38:09;;;;;;;;;;;;;;;13.57;61.25;97157.45;1720751;82;20154;-88
2021/05/30 04:40:36;;;;;;;;;;;;;;;13.60;61.45;97151.85;1720526;82;20166;-86
2021/05/30 04:43:02;;;;;;;;;;;;;;;13.65;60.98;97152.28;1742599;82;20166;-79
2021/05/30 04:45:28;;;;;;;;;;;;;;;13.73;60.82;97141.81;1742486;82;20542;-78
2021/05/30 04:47:54;;;;;;;;;;;;;;;13.84;60.57;97143.45;1742836;82;20495;-80
2021/05/30 04:50:22;;;;;;;;;;;;;;;14.00;60.27;97142.87;1738434;82;20127;-83
2021/05/30 04:52:48;;;;;;;;;;;;;;;14.19;60.40;97143.78;1728438;82;20183;-87
2021/05/30 04:55:15;;;;;;;;;;;;;;;14.32;59.78;97148.76;1710804;84;20197;-81
2021/05/30 04:57:44;;;;;;;;;;;;;;;14.29;58.33;97144.59;1712907;84;20223;-87
2021/05/30 05:00:12;;;;;;;;;;;;;;;14.28;59.17;97141.59;1713234;84;20184;-83
2021/05/30 05:02:38;;;;;;;;;;;;;;;14.29;58.75;97145.91;1713195;84;20176;-90
2021/05/30 05:05:06;;;;;;;;;;;;;;;14.36;59.37;97142.20;1713017;84;20137;-80
2021/05/30 05:07:32;;;;;;;;;;;;;;;14.51;59.25;97135.42;1713330;84;20231;-87
2021/05/30 05:09:58;;;;;;;;;;;;;;;14.70;58.92;97135.51;1712950;84;20176;-80
2021/05/30 05:12:24;;;;;;;;;;;;;;;14.91;59.50;97141.36;1712547;84;20203;-79
2021/05/30 05:14:51;;;;;;;;;;;;;;;15.12;59.44;97140.25;1712588;83;20168;-85
2021/05/30 05:17:18;;;;;;;;;;;;;;;15.20;58.53;97139.00;1712504;84;20168;-87
2021/05/30 05:19:44;;;;;;;;;;;;;;;15.25;56.86;97141.20;1712737;83;20171;-81
2021/05/30 05:22:10;;;;;;;;;;;;;;;15.26;56.85;97146.38;1685800;83;20191;-81
2021/05/30 05:24:36;;;;;;;;;;;;;;;15.24;57.69;97141.70;1680789;84;20495;-84
2021/05/30 05:27:03;;;;;;;;;;;;;;;15.11;57.66;97143.89;1681109;84;20500;-84
2021/05/30 05:29:29;;;;;;;;;;;;;;;15.04;58.77;97149.47;1681023;86;20179;-83
2021/05/30 05:31:59;;;;;;;;;;;;;;;14.99;57.82;97151.24;1681371;85;20159;-89
2021/05/30 05:34:25;;;;;;;;;;;;;;;14.92;57.59;97154.16;1696567;84;20164;-84
2021/05/30 05:36:51;;;;;;;;;;;;;;;14.81;57.98;97154.70;1713332;83;20172;-84
2021/05/30 05:39:17;;;;;;;;;;;;;;;14.51;58.31;97157.14;1686650;83;20171;-88
2021/05/30 05:41:44;;;;;;;;;;;;;;;14.28;58.75;97155.34;1682109;84;20167;-83
2021/05/30 05:44:10;;;;;;;;;;;;;;;14.22;58.97;97160.73;1681387;86;20179;-80
2021/05/30 05:46:36;;;;;;;;;;;;;;;14.21;59.06;97158.56;1681446;84;20531;-82
2021/05/30 05:49:03;;;;;;;;;;;;;;;14.20;59.14;97160.04;1681276;86;20515;-85
2021/05/30 05:51:29;;;;;;;;;;;;;;;14.21;59.06;97159.06;1680476;85;20191;-80
2021/05/30 05:53:56;;;;;;;;;;;;;;;14.18;59.18;97163.31;1696760;83;20177;-78
2021/05/30 05:56:22;;;;;;;;;;;;;;;14.19;59.17;97167.64;1700468;84;20240;-81
2021/05/30 05:58:48;;;;;;;;;;;;;;;14.15;59.20;97165.77;1707349;83;20599;-80
2021/05/30 06:01:14;;;;;;;;;;;;;;;14.23;59.06;97165.06;1700011;84;20657;-83
2021/05/30 06:03:42;;;;;;;;;;;;;;;14.30;58.66;97166.63;1706742;84;20215;-80
2021/05/30 06:06:09;;;;;;;;;;;;;;;14.43;59.15;97163.16;1721128;84;20540;-80
2021/05/30 06:08:35;;;;;;;;;;;;;;;14.65;57.93;97157.97;1713988;84;20150;-80
2021/05/30 06:11:01;;;;;;;;;;;;;;;14.98;58.73;97160.19;1703005;84;20125;-82
2021/05/30 06:13:28;;;;;;;;;;;;;;;15.36;57.75;97156.09;1701876;84;20145;-80
2021/05/30 06:15:54;;;;;;;;;;;;;;;15.95;55.17;97157.75;1701423;84;20170;-80
2021/05/30 06:18:23;;;;;;;;;;;;;;;16.41;56.94;97156.17;1702171;84;20169;-82
2021/05/30 06:20:49;;;;;;;;;;;;;;;17.09;55.63;97159.79;1717555;84;20232;-80
2021/05/30 06:23:15;;;;;;;;;;;;;;;17.80;54.19;97158.84;1701535;84;20193;-85
2021/05/30 06:25:42;;;;;;;;;;;;;;;18.26;53.64;97154.80;1701512;84;20181;-92
2021/05/30 06:28:10;;;;;;;;;;;;;;;18.52;50.72;97158.57;1701634;84;20158;-79
2021/05/30 06:30:38;;;;;;;;;;;;;;;18.86;48.42;97160.61;1701642;84;20106;-79
2021/05/30 06:33:06;;;;;;;;;;;;;;;19.19;50.71;97150.61;1704215;84;20528;-81
2021/05/30 06:35:33;;;;;;;;;;;;;;;19.39;49.68;97156.83;1715795;83;20172;-81
2021/05/30 06:38:01;;;;;;;;;;;;;;;19.70;50.04;97156.42;1709275;84;20176;-82
2021/05/30 06:40:27;;;;;;;;;;;;;;;19.80;47.57;97150.33;1708689;84;20191;-81
2021/05/30 06:42:53;;;;;;;;;;;;;;;19.63;46.30;97143.75;1714857;84;20243;-81
2021/05/30 06:45:20;;;;;;;;;;;;;;;19.51;45.90;97142.53;1714598;83;20162;-81
2021/05/30 06:47:46;;;;;;;;;;;;;;;19.47;46.38;97142.06;1702082;84;20204;-83
2021/05/30 06:50:13;;;;;;;;;;;;;;;19.48;48.98;97143.73;1702156;84;20169;-81
2021/05/30 06:52:39;;;;;;;;;;;;;;;19.58;48.20;97142.14;1717001;81;20215;-78
2021/05/30 06:55:06;;;;;;;;;;;;;;;20.09;46.99;97150.09;1737655;82;20244;-81
2021/05/30 06:57:33;;;;;;;;;;;;;;;20.54;46.39;97146.08;1721614;82;20156;-90
2021/05/30 06:59:59;;;;;;;;;;;;;;;20.62;45.54;97139.80;1727418;82;20192;-92
2021/05/30 07:02:25;;;;;;;;;;;;;;;20.05;42.58;97138.89;1724293;82;20152;-88
2021/05/30 07:04:52;;;;;;;;;;;;;;;19.92;44.55;97140.05;1725193;82;20197;-86
2021/05/30 07:07:18;;;;;;;;;;;;;;;20.10;43.33;97141.02;1720108;83;20535;-86
2021/05/30 07:09:46;;;;;;;;;;;;;;;20.19;44.46;97149.81;1719665;83;20172;-86
2021/05/30 07:12:12;;;;;;;;;;;;;;;19.87;42.83;97147.28;1719732;83;20161;-88
2021/05/30 07:14:38;;;;;;;;;;;;;;;19.49;42.97;97148.56;1719641;83;20164;-88
2021/05/30 07:17:04;;;;;;;;;;;;;;;19.02;43.60;97159.21;1723842;82;20524;-86
2021/05/30 07:19:30;;;;;;;;;;;;;;;18.81;44.59;97158.94;1718523;82;20184;-80
2021/05/30 07:21:56;;;;;;;;;;;;;;;19.01;45.73;97157.54;1721202;83;20854;-84
2021/05/30 07:24:22;;;;;;;;;;;;;;;19.54;44.41;97147.50;1722052;82;20253;-87
2021/05/30 07:26:48;;;;;;;;;;;;;;;20.17;41.03;97159.38;1739291;81;20154;-83
2021/05/30 07:29:16;;;;;;;;;;;;;;;20.11;42.35;97151.56;1755492;82;20482;-89
2021/05/30 07:31:43;;;;;;;;;;;;;;;20.02;41.21;97155.82;1735647;82;20220;-80
2021/05/30 07:34:11;;;;;;;;;;;;;;;20.10;42.03;97150.39;1753657;82;20174;-80
2021/05/30 07:36:37;;;;;;;;;;;;;;;20.18;40.46;97152.16;1714185;82;20148;-88
2021/05/30 07:39:03;;;;;;;;;;;;;;;20.28;43.77;97150.87;1729359;82;20221;-87
2021/05/30 07:41:30;;;;;;;;;;;;;;;20.17;40.61;97151.83;1755870;82;20158;-83
2021/05/30 07:43:56;;;;;;;;;;;;;;;19.84;40.35;97164.98;1755723;82;20182;-81
2021/05/30 07:46:24;;;;;;;;;;;;;;;19.73;43.53;97158.72;1754878;81;20229;-86
2021/05/30 07:48:50;;;;;;;;;;;;;;;19.83;42.22;97155.30;1753622;82;20176;-86
2021/05/30 07:51:19;;;;;;;;;;;;;;;19.46;42.54;97156.92;1755854;82;20189;-82
2021/05/30 07:53:45;;;;;;;;;;;;;;;19.08;42.07;97153.67;1750834;80;20593;-86
2021/05/30 07:56:11;;;;;;;;;;;;;;;18.84;41.59;97159.42;1749098;82;20171;-86
2021/05/30 07:58:38;;;;;;;;;;;;;;;18.40;42.28;97162.12;1750623;82;20166;-80
2021/05/30 08:01:06;;;;;;;;;;;;;;;18.13;43.13;97162.52;1742599;82;20207;-87
2021/05/30 08:03:32;;;;;;;;;;;;;;;17.99;43.56;97163.52;1717216;82;20160;-87
2021/05/30 08:05:58;;;;;;;;;;;;;;;18.03;43.51;97167.53;1717244;84;20188;-86
2021/05/30 08:08:25;;;;;;;;;;;;;;;18.00;43.51;97167.04;1716925;84;20188;-83
2021/05/30 08:10:51;;;;;;;;;;;;;;;18.01;44.15;97173.53;1716853;84;20140;-83
2021/05/30 08:13:17;;;;;;;;;;;;;;;17.80;44.34;97173.50;1717020;84;20176;-86
2021/05/30 08:15:43;;;;;;;;;;;;;;;17.66;44.30;97176.84;1719988;82;20168;-85
2021/05/30 08:18:10;;;;;;;;;;;;;;;17.48;44.46;97179.17;1742528;82;20166;-87
2021/05/30 08:20:36;;;;;;;;;;;;;;;17.11;45.52;97182.25;1734601;82;20520;-84
2021/05/30 08:23:02;;;;;;;;;;;;;;;17.07;46.10;97181.75;1727164;82;20466;-87
2021/05/30 08:25:28;;;;;;;;;;;;;;;16.96;46.36;97172.23;1750571;82;20707;-80
2021/05/30 08:27:54;;;;;;;;;;;;;;;16.92;46.39;97180.68;1748257;82;20519;-80
2021/05/30 08:30:21;;;;;;;;;;;;;;;16.81;46.50;97178.64;1736249;82;20234;-83
2021/05/30 08:32:47;;;;;;;;;;;;;;;16.70;46.18;97188.24;1720870;83;20166;-85
2021/05/30 08:35:16;;;;;;;;;;;;;;;16.70;46.15;97181.59;1720919;83;20188;-81
2021/05/30 08:37:44;;;;;;;;;;;;;;;16.78;46.45;97180.80;1720759;82;20496;-88
2021/05/30 08:40:14;;;;;;;;;;;;;;;16.91;46.34;97190.48;1722836;82;20156;-81
2021/05/30 08:42:44;;;;;;;;;;;;;;;17.01;45.78;97181.08;1716872;84;20200;-82
2021/05/30 08:45:10;;;;;;;;;;;;;;;17.00;45.69;97188.21;1716318;84;20214;-82
2021/05/30 08:47:36;;;;;;;;;;;;;;;17.17;45.32;97182.44;1742021;82;20182;-86
2021/05/30 08:50:04;;;;;;;;;;;;;;;17.37;45.57;97192.80;1745775;82;20511;-84
2021/05/30 08:52:32;;;;;;;;;;;;;;;17.13;45.85;97195.73;1745975;82;20471;-90
2021/05/30 08:54:59;;;;;;;;;;;;;;;17.04;45.61;97190.05;1725123;82;20206;-87
2021/05/30 08:57:26;;;;;;;;;;;;;;;16.99;45.65;97201.70;1745853;82;20507;-84
2021/05/30 08:59:55;;;;;;;;;;;;;;;16.91;46.31;97200.31;1719626;82;20180;-82
2021/05/30 09:02:24;;;;;;;;;;;;;;;16.94;46.10;97190.67;1716636;84;20572;-79
2021/05/30 09:04:54;;;;;;;;;;;;;;;16.91;46.52;97205.63;1716785;84;20148;-84
2021/05/30 09:07:42;;;;;;;;;;;;;;;16.92;46.81;97192.66;1716980;84;20176;-85
2021/05/30 09:10:13;;;;;;;;;;;;;;;17.01;46.26;97195.72;1717211;84;20169;-85
2021/05/30 09:12:42;;;;;;;;;;;;;;;16.96;45.95;97200.67;1716829;84;20251;-79
2021/05/30 09:15:15;;;;;;;;;;;;;;;17.11;46.32;97200.41;1716916;84;20243;-84
2021/05/30 09:17:44;;;;;;;;;;;;;;;17.23;46.29;97208.08;1714500;83;20204;-81
2021/05/30 09:20:14;;;;;;;;;;;;;;;17.38;46.28;97208.28;1717076;84;20176;-80
2021/05/30 09:22:43;;;;;;;;;;;;;;;17.23;46.62;97204.08;1717115;84;20271;-86
2021/05/30 09:25:16;;;;;;;;;;;;;;;17.32;46.72;97215.09;1716701;84;20176;-88
2021/05/30 09:27:53;;;;;;;;;;;;;;;17.32;46.24;97212.42;1717333;84;20164;-80
2021/05/30 09:30:42;;;;;;;;;;;;;;;17.23;45.83;97218.73;1717114;84;20156;-88
2021/05/30 09:33:12;;;;;;;;;;;;;;;17.18;46.33;97213.89;1717191;84;20165;-86
2021/05/30 09:35:46;;;;;;;;;;;;;;;17.12;44.92;97214.55;1714315;84;20248;-84
2021/05/30 09:38:15;;;;;;;;;;;;;;;17.13;45.93;97211.71;1711647;82;20165;-83
2021/05/30 09:40:52;;;;;;;;;;;;;;;17.26;46.06;97217.09;1712691;84;20229;-82
2021/05/30 09:43:27;;;;;;;;;;;;;;;17.24;45.19;97211.92;1712490;84;20616;-90
2021/05/30 09:46:08;;;;;;;;;;;;;;;17.23;45.85;97210.26;1712596;83;20521;-88
2021/05/30 09:48:44;;;;;;;;;;;;;;;17.31;45.77;97220.08;1713097;84;20205;-89
2021/05/30 09:51:36;;;;;;;;;;;;;;;17.28;45.16;97217.25;1713210;84;20240;-86
2021/05/30 09:54:07;;;;;;;;;;;;;;;17.42;45.61;97219.78;1710473;83;20182;-92
2021/05/30 09:56:39;;;;;;;;;;;;;;;17.52;44.93;97218.31;1701742;83;20140;-85
2021/05/30 09:59:12;;;;;;;;;;;;;;;17.64;44.99;97221.48;1703755;84;20477;-89
2021/05/30 10:01:59;;;;;;;;;;;;;;;17.56;43.06;97224.14;1703281;83;20203;-81
2021/05/30 10:04:31;;;;;;;;;;;;;;;17.57;44.23;97213.30;1727415;82;20146;-83
2021/05/30 10:06:58;;;;;;;;;;;;;;;17.54;43.12;97231.46;1698605;82;20273;-81
2021/05/30 10:09:26;;;;;;;;;;;;;;;17.52;42.95;97216.98;1694000;84;20168;-79
2021/05/30 10:11:55;;;;;;;;;;;;;;;17.47;43.92;97213.48;1701960;84;20200;-80
2021/05/30 10:14:21;;;;;;;;;;;;;;;17.33;44.41;97214.09;1705237;84;20173;-81
2021/05/30 10:16:48;;;;;;;;;;;;;;;17.33;43.31;97218.09;1694989;84;20216;-83
2021/05/30 10:19:36;;;;;;;;;;;;;;;17.40;43.88;97219.10;1694959;84;20183;-88
2021/05/30 10:22:03;;;;;;;;;;;;;;;17.53;42.99;97229.31;1676568;85;20160;-82
2021/05/30 10:24:31;;;;;;;;;;;;;;;17.62;43.04;97225.66;1698072;85;20232;-80
2021/05/30 10:27:23;;;;;;;;;;;;;;;17.58;42.98;97228.30;1698283;85;20219;-85
2021/05/30 10:30:13;;;;;;;;;;;;;;;17.45;43.41;97230.12;1697979;85;20168;-82
2021/05/30 10:32:45;;;;;;;;;;;;;;;17.54;43.88;97241.61;1712810;84;20235;-82
2021/05/30 10:35:21;;;;;;;;;;;;;;;17.46;43.39;97234.94;1715357;83;20155;-80
2021/05/30 10:37:50;;;;;;;;;;;;;;;17.52;43.67;97232.12;1713157;83;20239;-78
2021/05/30 10:40:35;;;;;;;;;;;;;;;17.60;43.02;97236.13;1715637;83;20208;-92
2021/05/30 10:43:12;;;;;;;;;;;;;;;17.62;43.37;97234.98;1715386;83;20301;-82
2021/05/30 10:45:45;;;;;;;;;;;;;;;17.57;43.20;97233.81;1715235;83;20607;-79
2021/05/30 10:48:17;;;;;;;;;;;;;;;17.79;43.73;97239.81;1715285;84;20207;-76
2021/05/30 10:51:01;;;;;;;;;;;;;;;18.09;44.09;97241.52;1715206;84;20515;-88
2021/05/30 10:53:34;;;;;;;;;;;;;;;18.21;42.84;97233.19;1715380;81;20187;-83
2021/05/30 10:56:19;;;;;;;;;;;;;;;18.36;42.10;97234.16;1715440;83;20172;-82
2021/05/30 10:59:07;;;;;;;;;;;;;;;18.61;43.07;97236.77;1715237;84;20191;-84
2021/05/30 11:01:40;;;;;;;;;;;;;;;18.80;41.66;97238.23;1715093;83;20196;-77
2021/05/30 11:04:29;;;;;;;;;;;;;;;18.87;42.81;97233.04;1715171;84;20184;-87
2021/05/30 11:07:06;;;;;;;;;;;;;;;19.04;41.70;97231.14;1715492;84;20227;-80
2021/05/30 11:09:57;;;;;;;;;;;;;;;18.97;41.40;97221.68;1706523;84;20183;-84
2021/05/30 11:12:26;;;;;;;;;;;;;;;19.06;40.98;97225.65;1712822;82;20177;-83
2021/05/30 11:15:14;;;;;;;;;;;;;;;18.94;40.35;97223.35;1712854;84;20160;-83
2021/05/30 11:17:43;;;;;;;;;;;;;;;18.40;41.14;97215.97;1712828;83;20161;-82
2021/05/30 11:20:12;;;;;;;;;;;;;;;18.34;42.02;97209.47;1711829;84;20608;-85
2021/05/30 11:22:53;;;;;;;;;;;;;;;18.40;42.29;97210.14;1712671;84;20172;-81
2021/05/30 11:25:43;;;;;;;;;;;;;;;18.34;42.49;97204.66;1712829;83;20149;-78
2021/05/30 11:28:20;;;;;;;;;;;;;;;18.27;41.90;97201.82;1712787;84;20587;-87
2021/05/30 11:31:01;;;;;;;;;;;;;;;18.17;42.61;97207.35;1712751;83;20210;-84
2021/05/30 11:33:40;;;;;;;;;;;;;;;18.24;42.11;97203.48;1713241;84;20505;-91
2021/05/30 11:36:05;;;;;;;;;;;;;;;18.31;41.61;97197.83;1712880;83;20177;-79
2021/05/30 11:38:42;;;;;;;;;;;;;;;18.35;42.26;97201.80;1713177;83;20176;-84
2021/05/30 11:41:17;;;;;;;;;;;;;;;18.36;41.35;97203.47;1712935;83;20164;-83
2021/05/30 11:43:57;;;;;;;;;;;;;;;18.11;41.64;97206.67;1713195;84;20152;-86
2021/05/30 11:46:25;;;;;;;;;;;;;;;17.78;42.19;97202.16;1712773;84;20165;-85
2021/05/30 11:49:12;;;;;;;;;;;;;;;17.75;43.02;97202.51;1712835;84;20204;-82
2021/05/30 11:51:56;;;;;;;;;;;;;;;17.88;43.22;97198.01;1713819;83;20168;-85
2021/05/30 11:54:22;;;;;;;;;;;;;;;18.16;42.69;97188.83;1711607;83;20513;-90
2021/05/30 11:56:51;;;;;;;;;;;;;;;18.40;42.84;97190.13;1706285;84;20160;-82
2021/05/30 11:59:39;;;;;;;;;;;;;;;18.39;41.57;97185.80;1706349;84;20168;-93
2021/05/30 12:02:06;;;;;;;;;;;;;;;18.38;41.92;97186.80;1705966;84;20168;-87
2021/05/30 12:04:37;;;;;;;;;;;;;;;18.24;42.16;97179.47;1705815;84;20200;-84
2021/05/30 12:07:11;;;;;;;;;;;;;;;18.18;41.56;97180.16;1702664;84;20174;-86
2021/05/30 12:09:53;;;;;;;;;;;;;;;18.00;42.47;97187.86;1706093;83;20152;-89
2021/05/30 12:12:31;;;;;;;;;;;;;;;17.82;42.75;97181.33;1734514;83;20234;-87
2021/05/30 12:15:12;;;;;;;;;;;;;;;17.82;42.98;97177.84;1700772;83;20525;-86
2021/05/30 12:17:42;;;;;;;;;;;;;;;17.92;42.94;97177.98;1734255;82;20234;-80
2021/05/30 12:20:15;;;;;;;;;;;;;;;17.98;43.22;97179.19;1734794;83;20712;-82
2021/05/30 12:22:41;;;;;;;;;;;;;;;17.96;42.84;97183.84;1734404;83;20499;-93
2021/05/30 12:25:09;;;;;;;;;;;;;;;17.99;42.72;97184.03;1735118;83;20484;-87
2021/05/30 12:27:35;;;;;;;;;;;;;;;18.00;42.61;97193.70;1736010;83;20226;-87
2021/05/30 12:30:01;;;;;;;;;;;;;;;17.98;41.73;97191.70;1735919;83;20222;-80
2021/05/30 12:32:27;;;;;;;;;;;;;;;17.92;41.98;97185.98;1731806;83;20170;-82
2021/05/30 12:34:53;;;;;;;;;;;;;;;17.99;43.11;97181.37;1735527;83;20210;-85
2021/05/30 12:37:23;;;;;;;;;;;;;;;18.10;42.78;97189.85;1731951;83;20163;-79
2021/05/30 12:39:53;;;;;;;;;;;;;;;18.21;42.77;97182.50;1729709;83;20218;-82
2021/05/30 12:42:23;;;;;;;;;;;;;;;18.25;42.42;97171.32;1732949;83;20151;-83
2021/05/30 12:44:55;;;;;;;;;;;;;;;18.30;42.11;97165.95;1702277;83;20589;-79
2021/05/30 12:47:24;;;;;;;;;;;;;;;18.33;42.45;97179.79;1705417;83;20191;-83
2021/05/30 12:50:03;;;;;;;;;;;;;;;18.34;41.58;97174.78;1690665;83;20149;-90
2021/05/30 12:52:53;;;;;;;;;;;;;;;18.16;42.48;97163.00;1697628;83;20491;-83
2021/05/30 12:55:23;;;;;;;;;;;;;;;18.23;42.56;97168.50;1734704;82;20198;-80
2021/05/30 12:57:51;;;;;;;;;;;;;;;18.37;42.80;97166.97;1750313;82;20150;-79
2021/05/30 13:00:35;;;;;;;;;;;;;;;18.38;42.88;97168.61;1729897;82;20232;-80